Time;durP1;ratioP1;P1;durP2;ratioP2;P2;SDS_P1;SDS_P2;PMS_P1;PMS_P2;Temp;Humidity;BMP_temperature;BMP_pressure;BME280_temperature;BME280_humidity;BME280_pressure;Samples;Min_cycle;Max_cycle;Signal;HPM_P1;HPM_P2
2024/02/02 00:01:03;;;;;;;10.20;3.03;;;;;;;18.25;39.29;103068.31;5007533;28;20022;-67
2024/02/02 00:03:28;;;;;;;9.70;3.15;;;;;;;18.37;39.51;103085.34;5006346;28;20431;-68
2024/02/02 00:05:53;;;;;;;9.15;2.97;;;;;;;18.37;39.54;103085.34;5007392;28;20025;-68
2024/02/02 00:08:20;;;;;;;9.90;3.17;;;;;;;18.33;39.48;103087.28;5007608;28;20042;-69
2024/02/02 00:10:45;;;;;;;7.65;2.60;;;;;;;18.20;39.67;103062.34;5008603;28;20033;-69
2024/02/02 00:13:11;;;;;;;8.68;3.28;;;;;;;18.19;39.66;103058.03;5007127;28;20076;-67
2024/02/02 00:15:36;;;;;;;6.38;2.63;;;;;;;18.18;39.28;103057.16;5008305;28;20084;-67
2024/02/02 00:18:02;;;;;;;8.18;3.20;;;;;;;18.15;39.58;103051.16;5008369;28;20080;-66
2024/02/02 00:20:27;;;;;;;8.50;3.28;;;;;;;18.28;39.45;103068.16;5008460;28;20386;-68
2024/02/02 00:22:53;;;;;;;7.28;3.13;;;;;;;18.13;39.50;103046.84;5008207;28;20030;-67
2024/02/02 00:25:18;;;;;;;9.48;3.03;;;;;;;18.27;39.16;103077.84;5008247;28;20041;-67
2024/02/02 00:27:43;;;;;;;9.55;3.22;;;;;;;18.26;39.40;103062.06;5008355;28;20034;-67
2024/02/02 00:30:09;;;;;;;8.70;3.13;;;;;;;18.11;39.36;103035.47;5008338;28;20057;-67
2024/02/02 00:32:35;;;;;;;9.27;3.65;;;;;;;18.17;39.35;103041.41;5008225;28;20065;-67
2024/02/02 00:35:00;;;;;;;7.72;3.05;;;;;;;18.19;39.32;103050.94;5008068;28;20077;-67
2024/02/02 00:37:25;;;;;;;8.68;3.13;;;;;;;18.19;39.15;103050.94;5008266;28;20053;-67
2024/02/02 00:39:51;;;;;;;8.57;3.50;;;;;;;18.17;39.26;103044.91;5007663;28;20080;-69
2024/02/02 00:42:16;;;;;;;10.68;2.90;;;;;;;18.03;39.15;103024.44;5008145;28;20114;-67
2024/02/02 00:44:41;;;;;;;7.97;3.00;;;;;;;18.04;39.09;103025.28;5007665;28;20030;-68
2024/02/02 00:47:07;;;;;;;8.27;3.40;;;;;;;18.02;38.97;103006.03;5007514;28;20065;-67
2024/02/02 00:49:32;;;;;;;11.52;3.53;;;;;;;18.05;39.33;102998.81;5007809;28;20030;-67
2024/02/02 00:51:57;;;;;;;7.82;3.20;;;;;;;18.11;38.97;103001.16;5007695;28;20022;-67
2024/02/02 00:54:23;;;;;;;8.30;3.42;;;;;;;17.99;39.21;102978.03;5007549;28;20461;-67
2024/02/02 00:56:48;;;;;;;11.45;3.78;;;;;;;18.11;39.25;103009.09;5007697;28;20032;-67
2024/02/02 00:59:13;;;;;;;7.85;3.05;;;;;;;18.08;38.96;103003.09;5007528;28;20118;-67
2024/02/02 01:01:39;;;;;;;8.00;3.20;;;;;;;18.09;39.03;103018.03;5005624;28;20030;-68
2024/02/02 01:04:04;;;;;;;7.60;2.97;;;;;;;17.94;39.08;103001.97;5007043;28;20104;-68
2024/02/02 01:06:30;;;;;;;8.20;3.33;;;;;;;18.06;39.26;103023.44;5007612;28;20034;-68
2024/02/02 01:08:55;;;;;;;7.03;2.92;;;;;;;18.06;39.15;103028.72;5008009;28;20501;-68
2024/02/02 01:11:22;;;;;;;8.38;3.00;;;;;;;17.93;39.17;103009.97;5007593;28;20394;-68
2024/02/02 01:13:47;;;;;;;7.97;2.90;;;;;;;17.94;39.12;103019.56;5006678;28;20029;-67
2024/02/02 01:16:13;;;;;;;11.70;3.88;;;;;;;17.92;39.42;103018.78;5007126;28;20083;-67
2024/02/02 01:18:38;;;;;;;9.50;3.20;;;;;;;17.84;39.06;102998.00;5006923;28;20391;-67
2024/02/02 01:21:04;;;;;;;9.45;3.20;;;;;;;17.89;39.24;103011.88;5005961;28;20096;-67
2024/02/02 01:23:30;;;;;;;7.15;2.83;;;;;;;18.02;39.27;103027.13;5007056;28;20036;-68
2024/02/02 01:25:55;;;;;;;9.30;3.58;;;;;;;17.98;39.30;103015.88;5007112;28;20029;-66
2024/02/02 01:28:20;;;;;;;8.23;3.10;;;;;;;17.89;39.22;102993.41;5006595;28;20072;-67
2024/02/02 01:30:46;;;;;;;9.10;3.00;;;;;;;17.87;39.09;102997.88;5007593;28;20339;-67
2024/02/02 01:33:11;;;;;;;10.07;3.08;;;;;;;17.88;39.30;102990.84;5006736;28;20133;-66
2024/02/02 01:35:36;;;;;;;10.18;3.33;;;;;;;18.03;39.21;103020.94;5006918;28;20057;-69
2024/02/02 01:38:02;;;;;;;8.52;3.13;;;;;;;17.98;39.33;103015.88;5006443;28;20037;-67
2024/02/02 01:40:27;;;;;;;7.57;2.85;;;;;;;17.84;39.40;102981.34;5005578;28;20036;-67
2024/02/02 01:42:53;;;;;;;7.85;2.75;;;;;;;18.00;39.22;103008.72;5007331;28;20371;-67
2024/02/02 01:45:18;;;;;;;7.60;3.05;;;;;;;17.98;39.57;103007.97;5006862;28;20034;-67
2024/02/02 01:47:43;;;;;;;9.00;2.90;;;;;;;17.87;39.44;102982.03;5006135;28;20141;-68
2024/02/02 01:50:09;;;;;;;8.07;3.03;;;;;;;17.86;39.15;102969.78;5006553;28;20128;-67
2024/02/02 01:52:34;;;;;;;7.05;2.78;;;;;;;17.95;39.14;102985.19;5006823;28;20121;-67
2024/02/02 01:55:01;;;;;;;8.30;3.00;;;;;;;17.93;39.09;102975.66;5006716;28;20037;-68
2024/02/02 01:57:26;;;;;;;9.85;3.17;;;;;;;17.87;39.21;102966.22;5006731;28;20030;-67
2024/02/02 01:59:52;;;;;;;9.27;3.28;;;;;;;17.82;39.20;102960.31;5006577;28;20022;-67
2024/02/02 02:02:17;;;;;;;8.27;2.97;;;;;;;17.95;39.20;102984.34;5006611;28;20505;-68
2024/02/02 02:04:43;;;;;;;9.85;3.30;;;;;;;17.92;39.16;102987.97;5021669;28;20471;-67
2024/02/02 02:07:09;;;;;;;8.55;2.88;;;;;;;17.94;39.11;102994.06;5006690;28;20029;-68
2024/02/02 02:09:35;;;;;;;8.02;3.15;;;;;;;17.83;39.16;102972.56;5006616;28;20030;-67
2024/02/02 02:12:01;;;;;;;8.70;3.00;;;;;;;17.78;39.13;102956.09;5003652;28;20041;-69
2024/02/02 02:14:26;;;;;;;8.55;2.92;;;;;;;17.75;39.00;102943.91;5003245;28;20392;-68
2024/02/02 02:16:52;;;;;;;8.23;3.08;;;;;;;17.89;38.99;102964.38;5006018;28;20030;-67
2024/02/02 02:19:17;;;;;;;9.38;3.20;;;;;;;17.77;39.02;102928.03;5006451;28;20030;-67
2024/02/02 02:21:43;;;;;;;8.80;2.90;;;;;;;17.87;38.98;102947.75;5006822;28;20076;-68
2024/02/02 02:24:09;;;;;;;6.65;2.83;;;;;;;17.81;39.03;102942.75;5006341;28;20038;-68
2024/02/02 02:26:35;;;;;;;7.93;2.80;;;;;;;17.87;38.89;102955.66;5005536;28;20034;-67
2024/02/02 02:29:00;;;;;;;8.93;2.80;;;;;;;17.85;39.11;102943.47;5006703;28;20360;-67
2024/02/02 02:31:27;;;;;;;8.15;2.88;;;;;;;17.70;39.10;102921.31;5005970;28;20406;-67
2024/02/02 02:33:52;;;;;;;8.32;2.70;;;;;;;17.71;38.88;102920.41;5005921;28;20026;-69
2024/02/02 02:36:18;;;;;;;7.35;3.33;;;;;;;17.73;39.04;102915.91;5006478;28;20378;-67
2024/02/02 02:38:43;;;;;;;7.70;2.80;;;;;;;17.74;39.07;102933.44;5006277;28;20382;-68
2024/02/02 02:41:09;;;;;;;8.10;2.60;;;;;;;17.79;39.15;102941.97;5005860;28;20116;-68
2024/02/02 02:43:35;;;;;;;8.05;2.70;;;;;;;17.83;38.80;102950.59;5006294;28;20793;-68
2024/02/02 02:46:00;;;;;;;7.40;2.50;;;;;;;17.67;39.18;102911.75;5005982;28;20030;-67
2024/02/02 02:48:26;;;;;;;7.07;2.95;;;;;;;17.71;38.70;102901.94;5010110;28;20597;-67
2024/02/02 02:50:52;;;;;;;8.43;2.47;;;;;;;17.70;39.09;102903.69;5010240;28;20022;-67
2024/02/02 02:53:17;;;;;;;7.93;2.63;;;;;;;17.80;38.69;102919.09;5009751;28;20030;-67
2024/02/02 02:55:42;;;;;;;9.10;2.85;;;;;;;17.66;38.73;102903.94;5009619;28;20029;-67
2024/02/02 02:58:08;;;;;;;8.30;2.90;;;;;;;17.68;39.14;102909.97;5009734;28;20029;-66
2024/02/02 03:00:34;;;;;;;8.43;2.90;;;;;;;17.77;38.89;102915.69;5009745;28;20144;-67
2024/02/02 03:02:59;;;;;;;9.30;3.38;;;;;;;17.66;38.71;102902.16;5008274;28;20108;-67
2024/02/02 03:05:26;;;;;;;7.00;2.67;;;;;;;17.67;39.03;102922.28;5009742;28;20475;-67
2024/02/02 03:07:52;;;;;;;9.63;3.15;;;;;;;17.68;38.75;102907.34;5009955;28;20172;-67
2024/02/02 03:10:18;;;;;;;8.23;2.75;;;;;;;17.75;38.89;102924.56;5009253;28;20064;-68
2024/02/02 03:12:43;;;;;;;7.50;2.72;;;;;;;17.74;38.82;102921.09;5009779;28;20451;-67
2024/02/02 03:15:09;;;;;;;10.52;3.13;;;;;;;17.64;38.96;102905.78;5008969;28;20459;-68
2024/02/02 03:17:34;;;;;;;7.53;2.63;;;;;;;17.76;38.67;102926.31;5010005;28;20488;-68
2024/02/02 03:19:59;;;;;;;8.38;3.08;;;;;;;17.71;38.65;102915.97;5009353;28;20038;-66
2024/02/02 03:22:25;;;;;;;6.95;2.80;;;;;;;17.70;38.54;102910.75;5009764;28;20088;-67
2024/02/02 03:24:50;;;;;;;7.07;2.25;;;;;;;17.59;38.75;102887.53;5009341;28;20116;-67
2024/02/02 03:27:16;;;;;;;6.93;2.50;;;;;;;17.58;38.69;102880.56;5009295;28;20116;-67
2024/02/02 03:29:41;;;;;;;8.38;2.50;;;;;;;17.57;38.84;102871.78;5009050;28;20029;-67
2024/02/02 03:32:06;;;;;;;6.75;2.53;;;;;;;17.66;38.98;102886.31;5009145;28;20022;-68
2024/02/02 03:34:32;;;;;;;9.02;3.10;;;;;;;17.58;38.87;102860.31;5008592;28;20060;-67
2024/02/02 03:36:57;;;;;;;7.78;2.95;;;;;;;17.66;38.84;102875.78;5009503;28;20061;-67
2024/02/02 03:39:22;;;;;;;8.02;2.90;;;;;;;17.71;38.55;102875.56;5008815;28;20034;-66
2024/02/02 03:41:48;;;;;;;7.65;2.85;;;;;;;17.59;38.54;102854.13;5009430;28;20105;-67
2024/02/02 03:44:13;;;;;;;6.70;2.47;;;;;;;17.58;38.51;102857.69;5009041;28;20030;-66
2024/02/02 03:46:39;;;;;;;7.95;3.10;;;;;;;17.66;38.71;102875.78;5008289;28;20046;-68
2024/02/02 03:49:04;;;;;;;6.38;2.33;;;;;;;17.67;38.74;102871.34;5009111;28;20033;-66
2024/02/02 03:51:29;;;;;;;8.52;3.00;;;;;;;17.54;38.66;102845.56;5008885;28;20033;-68
2024/02/02 03:53:55;;;;;;;6.28;2.53;;;;;;;17.52;38.38;102855.31;5009134;28;20172;-66
2024/02/02 03:56:20;;;;;;;7.78;2.72;;;;;;;17.65;38.51;102870.56;5008109;28;20103;-67
2024/02/02 03:58:45;;;;;;;8.13;2.38;;;;;;;17.64;38.53;102864.47;5009201;28;20084;-66
2024/02/02 04:01:11;;;;;;;7.03;2.60;;;;;;;17.52;38.61;102846.56;5008709;28;20111;-67
2024/02/02 04:03:36;;;;;;;8.48;2.65;;;;;;;17.52;38.65;102857.13;5007787;28;20026;-67
2024/02/02 04:06:01;;;;;;;7.38;2.95;;;;;;;17.52;38.44;102859.75;5008341;28;20026;-68
2024/02/02 04:08:28;;;;;;;9.77;2.83;;;;;;;17.49;38.73;102852.84;5008297;28;20025;-68
2024/02/02 04:10:53;;;;;;;6.95;2.30;;;;;;;17.61;38.59;102869.00;5008609;28;20396;-69
2024/02/02 04:13:19;;;;;;;7.05;2.58;;;;;;;17.62;38.26;102868.94;5008813;28;20048;-68
2024/02/02 04:15:44;;;;;;;8.35;2.80;;;;;;;17.61;38.63;102859.31;5008423;28;20028;-68
2024/02/02 04:18:09;;;;;;;7.43;2.88;;;;;;;17.48;38.44;102842.34;5008193;28;20034;-67
2024/02/02 04:20:35;;;;;;;8.43;2.50;;;;;;;17.48;38.66;102837.09;5008383;28;20079;-67
2024/02/02 04:23:00;;;;;;;8.30;2.65;;;;;;;17.47;38.07;102840.66;5008645;28;20116;-68
2024/02/02 04:25:26;;;;;;;10.45;3.25;;;;;;;17.58;38.34;102860.31;5007802;28;20033;-67
2024/02/02 04:27:51;;;;;;;9.00;2.58;;;;;;;17.48;38.52;102852.91;5023416;28;20034;-67
2024/02/02 04:30:17;;;;;;;7.97;2.40;;;;;;;17.56;38.54;102867.44;5006800;28;20037;-67
2024/02/02 04:32:42;;;;;;;7.70;2.67;;;;;;;17.56;38.20;102874.47;5007967;28;20026;-67
2024/02/02 04:35:08;;;;;;;10.38;3.05;;;;;;;17.38;38.43;102839.31;5007092;28;20391;-67
2024/02/02 04:37:33;;;;;;;8.63;2.50;;;;;;;17.40;38.42;102834.81;5007938;28;20029;-67
2024/02/02 04:39:59;;;;;;;7.00;2.38;;;;;;;17.57;38.37;102863.03;5008150;28;20108;-67
2024/02/02 04:42:24;;;;;;;8.27;2.80;;;;;;;17.41;38.58;102840.00;5007677;28;20026;-68
2024/02/02 04:44:49;;;;;;;8.57;2.45;;;;;;;17.46;38.55;102846.84;5007639;28;20079;-67
2024/02/02 04:47:15;;;;;;;9.13;2.63;;;;;;;17.51;38.34;102858.03;5007622;28;20060;-69
2024/02/02 04:49:40;;;;;;;8.43;2.80;;;;;;;17.43;38.34;102844.34;5008153;28;20037;-67
2024/02/02 04:52:05;;;;;;;6.90;2.70;;;;;;;17.51;38.66;102868.56;5008124;28;20463;-67
2024/02/02 04:54:31;;;;;;;6.97;2.42;;;;;;;17.51;38.22;102871.22;5006054;28;20107;-67
2024/02/02 04:56:56;;;;;;;8.20;2.70;;;;;;;17.46;38.63;102876.69;5006531;28;20188;-67
2024/02/02 04:59:23;;;;;;;8.40;2.72;;;;;;;17.40;38.50;102856.75;5007562;28;20033;-69
2024/02/02 05:01:49;;;;;;;7.57;2.47;;;;;;;17.51;38.47;102868.56;5007108;28;20060;-68
2024/02/02 05:04:14;;;;;;;7.68;2.30;;;;;;;17.32;38.13;102824.66;5006936;28;20471;-66
2024/02/02 05:06:39;;;;;;;7.38;2.70;;;;;;;17.48;38.33;102852.91;5006778;28;20487;-68
2024/02/02 05:09:05;;;;;;;7.53;2.35;;;;;;;17.36;38.47;102826.19;5006527;28;20033;-67
2024/02/02 05:11:30;;;;;;;9.40;2.83;;;;;;;17.46;38.43;102846.84;5007165;28;20044;-67
2024/02/02 05:13:56;;;;;;;5.40;2.25;;;;;;;17.36;38.19;102820.91;5007102;28;20030;-67
2024/02/02 05:16:21;;;;;;;8.60;2.40;;;;;;;17.40;38.63;102832.16;5022105;28;20037;-67
2024/02/02 05:18:47;;;;;;;8.32;2.53;;;;;;;17.32;38.24;102814.09;5005568;28;20029;-67
2024/02/02 05:21:12;;;;;;;8.07;2.60;;;;;;;17.48;38.12;102830.06;5006855;28;20029;-67
2024/02/02 05:23:37;;;;;;;7.53;2.65;;;;;;;17.37;38.17;102813.84;5007047;28;20022;-67
2024/02/02 05:26:04;;;;;;;7.55;2.38;;;;;;;17.32;38.38;102807.97;5006651;28;20060;-67
2024/02/02 05:28:29;;;;;;;6.90;2.28;;;;;;;17.32;38.21;102810.59;5006527;28;20866;-68
2024/02/02 05:30:54;;;;;;;7.32;2.50;;;;;;;17.31;38.04;102812.38;5006569;28;20034;-69
2024/02/02 05:33:20;;;;;;;7.65;2.63;;;;;;;17.32;38.49;102813.22;5007181;28;20032;-67
2024/02/02 05:35:45;;;;;;;7.75;2.75;;;;;;;17.42;38.13;102822.44;5007027;28;20129;-68
2024/02/02 05:38:11;;;;;;;6.80;2.60;;;;;;;17.29;38.50;102795.78;5007305;28;20402;-67
2024/02/02 05:40:36;;;;;;;8.23;2.35;;;;;;;17.33;38.42;102799.97;5006483;28;20615;-68
2024/02/02 05:43:01;;;;;;;7.88;2.45;;;;;;;17.41;38.16;102807.53;5006721;28;20072;-69
2024/02/02 05:45:26;;;;;;;8.45;2.70;;;;;;;17.42;38.52;102809.25;5005802;28;20030;-67
2024/02/02 05:47:52;;;;;;;7.03;1.85;;;;;;;17.45;38.76;102811.75;5004853;28;20057;-68
2024/02/02 05:50:17;;;;;;;7.53;2.10;;;;;;;17.33;39.01;102778.06;5004860;28;20113;-67
2024/02/02 05:52:42;;;;;;;6.38;2.13;;;;;;;17.49;38.82;102797.47;5005636;28;20040;-68
2024/02/02 05:55:08;;;;;;;5.85;2.00;;;;;;;17.52;39.26;102793.84;5005666;28;20355;-67
2024/02/02 05:57:33;;;;;;;6.05;2.00;;;;;;;17.57;39.29;102794.47;5005552;28;20490;-68
2024/02/02 05:59:58;;;;;;;6.15;1.95;;;;;;;17.43;39.33;102762.66;5004158;28;20049;-67
2024/02/02 06:02:24;;;;;;;6.30;2.50;;;;;;;17.50;39.26;102778.09;5006591;28;20204;-68
2024/02/02 06:04:50;;;;;;;5.15;1.90;;;;;;;17.65;39.12;102792.31;5006292;28;20042;-68
2024/02/02 06:07:16;;;;;;;5.75;1.73;;;;;;;17.57;39.21;102773.38;5006270;28;20129;-67
2024/02/02 06:09:41;;;;;;;5.72;2.15;;;;;;;17.61;39.28;102767.03;5006241;28;20112;-67
2024/02/02 06:12:07;;;;;;;5.47;2.00;;;;;;;17.63;39.01;102766.97;5006502;28;20394;-67
2024/02/02 06:14:32;;;;;;;6.10;1.95;;;;;;;17.64;39.06;102760.75;5006352;28;20364;-67
2024/02/02 06:16:57;;;;;;;6.32;2.00;;;;;;;17.81;38.84;102787.16;5006799;28;20037;-67
2024/02/02 06:19:23;;;;;;;5.97;1.90;;;;;;;17.78;38.93;102771.47;5007627;28;20022;-67
2024/02/02 06:21:48;;;;;;;6.75;2.25;;;;;;;17.70;39.18;102768.38;5010557;28;20022;-66
2024/02/02 06:24:13;;;;;;;6.38;1.88;;;;;;;17.77;39.15;102762.72;5010707;28;20033;-67
2024/02/02 06:26:39;;;;;;;6.30;2.45;;;;;;;17.71;39.26;102764.81;5007059;28;20022;-66
2024/02/02 06:29:04;;;;;;;4.78;1.95;;;;;;;17.89;39.21;102792.06;5010421;28;20026;-67
2024/02/02 06:31:30;;;;;;;5.90;1.85;;;;;;;17.81;39.36;102773.13;5010403;28;20113;-67
2024/02/02 06:33:55;;;;;;;5.50;1.92;;;;;;;17.87;39.66;102786.00;5009779;28;20120;-67
2024/02/02 06:36:26;;;;;;;6.40;1.90;;;;;;;17.93;39.74;102799.78;5010087;28;20028;-67
2024/02/02 06:38:53;;;;;;;7.07;2.00;;;;;;;17.88;39.83;102778.03;5009882;28;20812;-69
2024/02/02 06:41:19;;;;;;;6.50;2.17;;;;;;;17.97;40.09;102794.34;5010149;28;20478;-68
2024/02/02 06:43:44;;;;;;;6.07;2.13;;;;;;;17.97;40.12;102797.81;5009427;28;20084;-67
2024/02/02 06:46:09;;;;;;;6.93;2.00;;;;;;;17.89;39.79;102777.09;5009373;28;20058;-67
2024/02/02 06:48:35;;;;;;;6.07;1.95;;;;;;;17.98;39.88;102794.25;5009078;28;20113;-68
2024/02/02 06:51:00;;;;;;;6.38;2.08;;;;;;;18.00;40.26;102802.94;5008610;28;20033;-66
2024/02/02 06:53:29;;;;;;;6.07;1.95;;;;;;;17.86;40.36;102776.38;5008830;28;20030;-66
2024/02/02 06:55:54;;;;;;;7.03;2.05;;;;;;;18.01;40.55;102804.66;5008347;28;20038;-65
2024/02/02 06:58:39;;;;;;;6.53;2.15;;;;;;;18.02;40.46;102810.78;5008206;28;20042;-66
2024/02/02 07:01:05;;;;;;;5.13;1.90;;;;;;;18.04;40.86;102811.56;5008690;28;20030;-66
2024/02/02 07:03:31;;;;;;;6.85;2.30;;;;;;;18.02;40.88;102811.63;5008827;28;20386;-67
2024/02/02 07:05:57;;;;;;;5.85;1.98;;;;;;;17.88;41.22;102800.91;5009219;28;20029;-67
2024/02/02 07:08:22;;;;;;;6.72;2.10;;;;;;;17.94;41.15;102804.13;5007954;28;20060;-66
2024/02/02 07:11:15;;;;;;;7.32;2.65;;;;;;;17.90;41.56;102792.00;5009603;28;20113;-69
2024/02/02 07:13:49;;;;;;;8.13;2.33;;;;;;;17.99;41.89;102805.66;5008134;28;20034;-66
2024/02/02 07:16:27;;;;;;;7.45;2.60;;;;;;;17.87;41.51;102789.47;5008950;28;20115;-66
2024/02/02 07:18:53;;;;;;;8.35;2.35;;;;;;;18.05;42.18;102816.75;5009446;28;20502;-66
2024/02/02 07:21:19;;;;;;;7.05;2.35;;;;;;;18.11;41.94;102832.28;5008797;28;20462;-66
2024/02/02 07:23:45;;;;;;;10.20;2.53;;;;;;;18.11;42.27;102834.94;5008778;28;20030;-69
2024/02/02 07:26:22;;;;;;;8.25;2.40;;;;;;;18.10;42.57;102827.97;5007568;28;20034;-67
2024/02/02 07:28:47;;;;;;;7.07;2.25;;;;;;;18.16;42.57;102839.13;5007307;28;20096;-66
2024/02/02 07:31:33;;;;;;;8.20;2.10;;;;;;;18.13;42.69;102838.38;5006716;28;20036;-67
2024/02/02 07:34:03;;;;;;;6.65;2.10;;;;;;;18.05;43.06;102813.28;5007426;28;20037;-66
2024/02/02 07:36:33;;;;;;;7.75;2.40;;;;;;;18.12;43.02;102827.88;5008202;28;20513;-66
2024/02/02 07:38:59;;;;;;;7.63;2.33;;;;;;;18.15;43.01;102840.94;5009134;28;20127;-69
2024/02/02 07:41:26;;;;;;;6.57;2.28;;;;;;;18.18;42.79;102837.25;5008918;28;20978;-67
2024/02/02 07:43:59;;;;;;;7.07;2.58;;;;;;;18.07;42.63;102812.28;5008813;28;20037;-66
2024/02/02 07:46:25;;;;;;;8.48;2.90;;;;;;;18.09;42.76;102814.84;5008223;28;20050;-68
2024/02/02 07:48:54;;;;;;;8.48;2.10;;;;;;;18.15;42.82;102816.31;5007346;28;20042;-66
2024/02/02 07:51:22;;;;;;;8.55;2.67;;;;;;;18.12;42.74;102812.06;5008489;28;20029;-66
2024/02/02 07:53:48;;;;;;;7.22;2.17;;;;;;;18.08;42.50;102821.88;5007285;28;20030;-65
2024/02/02 07:56:13;;;;;;;8.80;2.55;;;;;;;18.14;42.65;102828.66;5008377;28;20367;-65
2024/02/02 07:58:40;;;;;;;11.77;2.58;;;;;;;18.09;42.63;102812.22;5008393;28;20467;-66
2024/02/02 08:01:06;;;;;;;10.15;2.53;;;;;;;18.01;42.37;102798.50;5008463;28;20483;-65
2024/02/02 08:03:33;;;;;;;9.73;2.40;;;;;;;18.02;42.56;102805.50;5007376;28;20044;-65
2024/02/02 08:05:58;;;;;;;8.70;2.42;;;;;;;18.08;42.58;102811.31;5008222;28;20033;-66
2024/02/02 08:08:23;;;;;;;10.57;3.13;;;;;;;18.09;42.71;102823.59;5007724;28;20140;-65
2024/02/02 08:10:49;;;;;;;9.70;2.33;;;;;;;18.15;42.61;102825.09;5008370;28;20084;-64
2024/02/02 08:13:15;;;;;;;9.85;2.60;;;;;;;18.11;42.56;102815.63;5008126;28;20030;-65
2024/02/02 08:15:40;;;;;;;10.05;2.75;;;;;;;18.01;42.61;102790.59;5006794;28;20040;-65
2024/02/02 08:18:06;;;;;;;8.75;2.70;;;;;;;18.12;42.43;102806.78;5008466;28;20054;-67
2024/02/02 08:20:32;;;;;;;9.68;2.70;;;;;;;18.01;42.52;102791.47;5008543;28;20033;-68
2024/02/02 08:22:58;;;;;;;7.53;2.38;;;;;;;18.12;42.63;102804.97;5008741;28;20034;-67
2024/02/02 08:25:23;;;;;;;11.75;2.75;;;;;;;18.11;42.76;102807.69;5008202;28;20530;-66
2024/02/02 08:27:49;;;;;;;8.18;2.72;;;;;;;18.00;42.98;102797.66;5008068;28;20044;-68
2024/02/02 08:30:14;;;;;;;7.28;2.45;;;;;;;18.13;42.48;102809.34;5008002;28;20033;-65
2024/02/02 08:32:40;;;;;;;9.68;3.10;;;;;;;18.01;42.70;102785.31;5008364;28;20884;-66
2024/02/02 08:35:06;;;;;;;12.13;2.70;;;;;;;18.10;42.93;102809.50;5008111;28;20091;-67
2024/02/02 08:37:32;;;;;;;7.80;2.67;;;;;;;18.00;42.85;102783.63;5008207;28;20052;-67
2024/02/02 08:39:58;;;;;;;10.35;2.97;;;;;;;18.15;42.82;102803.09;5008359;28;20473;-65
2024/02/02 08:42:23;;;;;;;12.35;2.75;;;;;;;18.15;42.65;102803.09;5008136;28;20029;-65
2024/02/02 08:44:50;;;;;;;8.35;2.95;;;;;;;18.11;42.84;102797.13;5008057;28;20050;-65
2024/02/02 08:47:17;;;;;;;8.43;2.55;;;;;;;18.02;43.16;102777.34;5007421;28;20050;-65
2024/02/02 08:49:55;;;;;;;6.95;2.22;;;;;;;18.13;43.02;102784.72;5007552;28;20459;-65
2024/02/02 08:52:27;;;;;;;8.95;2.92;;;;;;;18.16;43.01;102789.00;5007133;28;20459;-66
2024/02/02 08:54:52;;;;;;;10.55;2.80;;;;;;;18.04;42.94;102783.41;5007852;28;20080;-65
2024/02/02 08:57:50;;;;;;;10.38;3.03;;;;;;;18.16;43.23;102787.19;5007172;28;20430;-66
2024/02/02 09:00:40;;;;;;;9.45;2.97;;;;;;;18.11;43.12;102782.16;5006225;28;20037;-66
2024/02/02 09:03:06;;;;;;;14.35;3.17;;;;;;;18.18;43.08;102787.97;5005795;28;20087;-65
2024/02/02 09:05:57;;;;;;;10.38;2.83;;;;;;;18.18;42.94;102787.97;5007041;28;20511;-66
2024/02/02 09:08:40;;;;;;;9.77;2.95;;;;;;;18.07;43.40;102761.28;5007552;28;20042;-65
2024/02/02 09:11:10;;;;;;;11.25;3.10;;;;;;;18.21;43.69;102790.44;5006129;28;20673;-64
2024/02/02 09:13:38;;;;;;;9.45;2.85;;;;;;;18.13;43.66;102769.75;5017389;28;21488;-66
2024/02/02 09:16:04;;;;;;;9.90;3.15;;;;;;;18.11;43.52;102766.31;5007536;28;20028;-66
2024/02/02 09:18:41;;;;;;;11.82;3.17;;;;;;;18.13;43.50;102766.25;5006956;28;20314;-66
2024/02/02 09:21:08;;;;;;;10.68;3.00;;;;;;;18.20;43.66;102772.94;5006187;28;20113;-67
2024/02/02 09:23:35;;;;;;;10.18;2.92;;;;;;;18.12;43.52;102764.56;5007367;28;20026;-69
2024/02/02 09:26:07;;;;;;;10.65;3.10;;;;;;;18.23;44.06;102783.31;5007245;28;20524;-67
2024/02/02 09:28:38;;;;;;;9.52;3.38;;;;;;;18.28;43.63;102797.13;5006780;28;20446;-68
2024/02/02 09:31:06;;;;;;;12.73;3.20;;;;;;;18.20;43.41;102772.94;5007253;28;20033;-68
2024/02/02 09:33:31;;;;;;;8.23;2.70;;;;;;;18.30;43.61;102789.13;5007430;28;20030;-67
2024/02/02 09:36:03;;;;;;;10.07;3.08;;;;;;;18.16;43.71;102768.72;5006937;28;20030;-67
2024/02/02 09:38:32;;;;;;;12.68;3.17;;;;;;;18.29;43.76;102790.94;5007156;28;20026;-68
2024/02/02 09:41:00;;;;;;;13.02;3.47;;;;;;;18.30;43.78;102782.06;5006986;28;20069;-67
2024/02/02 09:43:55;;;;;;;9.90;2.80;;;;;;;18.19;44.27;102771.22;5007181;28;20037;-67
2024/02/02 09:46:51;;;;;;;8.57;2.63;;;;;;;18.32;44.28;102797.81;5007150;28;20051;-67
2024/02/02 09:49:36;;;;;;;12.38;3.28;;;;;;;18.29;43.98;102793.56;5006779;28;20080;-68
2024/02/02 09:52:23;;;;;;;13.70;3.53;;;;;;;18.26;43.90;102788.44;5006963;28;20069;-68
2024/02/02 09:55:19;;;;;;;11.35;3.50;;;;;;;18.29;44.54;102779.50;5005685;28;20850;-69
2024/02/02 09:58:07;;;;;;;12.27;3.28;;;;;;;18.37;44.48;102785.22;5007159;28;20076;-69
2024/02/02 10:00:39;;;;;;;9.90;2.70;;;;;;;18.38;44.91;102780.84;5006139;28;20042;-66
2024/02/02 10:03:23;;;;;;;11.55;3.53;;;;;;;18.40;44.90;102797.44;5005780;28;20034;-69
2024/02/02 10:05:48;;;;;;;10.02;3.17;;;;;;;18.40;44.89;102787.72;5006369;28;20044;-67
2024/02/02 10:08:28;;;;;;;10.35;3.40;;;;;;;18.41;44.74;102789.44;5006623;28;20038;-68
2024/02/02 10:11:12;;;;;;;8.63;2.80;;;;;;;18.41;44.28;102781.53;5006608;28;20094;-68
2024/02/02 10:13:52;;;;;;;10.38;3.17;;;;;;;18.39;44.25;102798.34;5006146;28;20037;-68
2024/02/02 10:16:25;;;;;;;12.63;3.08;;;;;;;18.33;44.38;102782.88;5004753;28;20029;-69
2024/02/02 10:19:09;;;;;;;12.85;3.35;;;;;;;18.43;44.35;102792.00;5006459;28;20066;-67
2024/02/02 10:22:09;;;;;;;10.23;3.10;;;;;;;18.45;44.30;102791.00;5006868;28;20496;-66
2024/02/02 10:24:39;;;;;;;11.02;3.30;;;;;;;18.47;44.49;102797.03;5006867;28;20121;-65
2024/02/02 10:27:19;;;;;;;11.00;3.03;;;;;;;18.35;44.54;102767.78;5021786;28;20124;-65
2024/02/02 10:30:13;;;;;;;10.75;2.60;;;;;;;18.51;44.48;102783.69;5007166;28;20439;-66
2024/02/02 10:33:06;;;;;;;10.95;2.97;;;;;;;18.50;44.70;102785.47;5006746;28;20044;-66
2024/02/02 10:36:01;;;;;;;9.38;2.90;;;;;;;18.44;44.56;102784.00;5005945;28;20041;-66
2024/02/02 10:38:33;;;;;;;8.60;3.00;;;;;;;18.49;44.58;102797.81;5006545;28;20045;-68
2024/02/02 10:41:15;;;;;;;10.75;2.95;;;;;;;18.48;44.35;102803.16;5005603;28;20113;-66
2024/02/02 10:43:46;;;;;;;8.57;2.78;;;;;;;18.49;44.48;102802.25;5005439;28;20034;-68
2024/02/02 10:46:12;;;;;;;8.63;2.75;;;;;;;18.47;44.77;102794.41;5005338;28;20144;-69
2024/02/02 10:48:45;;;;;;;9.43;2.72;;;;;;;18.46;44.76;102792.69;5005898;28;20121;-69
2024/02/02 10:51:41;;;;;;;10.77;2.80;;;;;;;18.48;44.64;102800.53;5006627;28;20089;-68
2024/02/02 10:54:40;;;;;;;9.13;2.80;;;;;;;18.48;44.51;102797.88;5006391;28;20058;-68
2024/02/02 10:57:24;;;;;;;8.00;2.55;;;;;;;18.48;44.57;102792.59;5006301;28;20605;-68
2024/02/02 10:59:52;;;;;;;7.15;2.55;;;;;;;18.47;44.85;102797.03;5005235;28;20030;-68
2024/02/02 11:02:36;;;;;;;8.25;2.50;;;;;;;18.49;44.99;102795.16;5005657;28;20084;-68
2024/02/02 11:05:34;;;;;;;9.35;2.80;;;;;;;18.49;44.97;102776.69;5006294;28;20041;-67
2024/02/02 11:08:02;;;;;;;7.22;2.45;;;;;;;18.51;44.97;102770.47;5011189;28;20100;-67
2024/02/02 11:10:58;;;;;;;9.00;2.90;;;;;;;18.51;44.87;102778.41;5009852;28;20121;-66
2024/02/02 11:13:36;;;;;;;8.43;2.75;;;;;;;18.52;44.97;102774.81;4996174;28;20100;-67
2024/02/02 11:16:25;;;;;;;12.13;2.90;;;;;;;18.52;45.35;102762.47;5009367;28;20149;-68
2024/02/02 11:19:16;;;;;;;7.30;2.53;;;;;;;18.42;45.35;102738.34;5008416;28;20372;-69
2024/02/02 11:22:02;;;;;;;7.05;2.47;;;;;;;18.53;45.42;102747.47;5009888;28;20022;-68
2024/02/02 11:24:42;;;;;;;7.72;3.05;;;;;;;18.33;45.47;102699.25;5009757;28;20061;-67
2024/02/02 11:27:19;;;;;;;8.88;2.97;;;;;;;18.42;45.40;102711.97;5009397;28;20048;-68
2024/02/02 11:30:06;;;;;;;8.85;2.70;;;;;;;18.54;45.57;102736.00;5009216;28;20029;-68
2024/02/02 11:32:56;;;;;;;9.07;2.80;;;;;;;18.55;45.63;102733.28;5008454;28;20124;-67